createdAt,value
2024-05-09T00:00:59.117Z,101960.34
2024-05-09T00:04:03.752Z,101972.72
2024-05-09T00:07:08.244Z,101974.44
2024-05-09T00:10:22.099Z,101971.16
2024-05-09T00:13:33.019Z,101966.97
2024-05-09T00:16:37.127Z,101961.50
2024-05-09T00:19:43.596Z,101910.09
2024-05-09T00:22:48.070Z,101969.03
2024-05-09T00:25:52.340Z,101972.22
2024-05-09T00:28:56.796Z,101946.75
2024-05-09T00:32:00.971Z,101930.50
2024-05-09T00:35:05.916Z,101949.63
2024-05-09T00:38:10.759Z,101957.03
2024-05-09T00:41:17.139Z,101953.28
2024-05-09T00:44:23.391Z,101966.75
2024-05-09T00:47:28.040Z,101969.06
2024-05-09T00:50:36.839Z,101962.47
2024-05-09T00:53:42.725Z,101970.28
2024-05-09T00:56:48.515Z,101968.94
2024-05-09T00:59:53.799Z,101964.53
2024-05-09T01:02:57.871Z,101965.16
2024-05-09T01:06:02.161Z,101969.06
2024-05-09T01:09:06.678Z,101943.66
2024-05-09T01:12:10.862Z,101964.47
2024-05-09T01:15:15.245Z,101957.63
2024-05-09T01:18:19.608Z,101917.97
2024-05-09T01:21:24.464Z,101936.34
2024-05-09T01:24:28.690Z,101974.41
2024-05-09T01:27:33.129Z,101951.09
2024-05-09T01:30:38.230Z,101952.03
2024-05-09T01:33:46.315Z,101946.47
2024-05-09T01:36:50.742Z,101952.53
2024-05-09T01:39:54.938Z,101958.13
2024-05-09T01:42:59.306Z,101961.16
2024-05-09T01:46:03.708Z,101925.75
2024-05-09T01:49:08.339Z,101957.38
2024-05-09T01:52:12.662Z,101953.41
2024-05-09T01:55:16.781Z,101952.53
2024-05-09T01:58:21.150Z,101953.25
2024-05-09T02:01:25.459Z,101957.72
2024-05-09T02:04:30.695Z,101946.31
2024-05-09T02:07:35.087Z,101961.72
2024-05-09T02:10:39.501Z,101949.56
2024-05-09T02:13:43.784Z,101958.72
2024-05-09T02:16:48.542Z,101923.31
2024-05-09T02:19:52.577Z,101959.31
2024-05-09T02:22:57.545Z,101958.59
2024-05-09T02:26:01.728Z,101952.91
2024-05-09T02:29:09.048Z,101904.06
2024-05-09T02:32:16.437Z,101920.75
2024-05-09T02:35:21.040Z,101919.25
2024-05-09T02:38:25.661Z,101958.19
2024-05-09T02:41:30.105Z,101952.78
2024-05-09T02:44:34.138Z,101955.19
2024-05-09T02:47:38.841Z,101905.69
2024-05-09T02:50:45.911Z,101952.44
2024-05-09T02:53:49.958Z,101948.97
2024-05-09T02:56:54.191Z,101931.41
2024-05-09T02:59:58.764Z,101949.91
2024-05-09T03:03:03.390Z,101953.31
2024-05-09T03:06:07.579Z,101957.09
2024-05-09T03:09:12.107Z,101939.31
2024-05-09T03:12:16.458Z,101942.00
2024-05-09T03:15:22.543Z,101914.16
2024-05-09T03:18:27.188Z,101930.22
2024-05-09T03:21:31.597Z,101961.09
2024-05-09T03:24:35.830Z,101907.59
2024-05-09T03:27:40.087Z,101950.72
2024-05-09T03:30:44.535Z,101911.91
2024-05-09T03:33:48.729Z,101946.72
2024-05-09T03:36:53.112Z,101952.56
2024-05-09T03:39:57.280Z,101930.34
2024-05-09T03:43:01.525Z,101950.81
2024-05-09T03:46:06.007Z,101937.19
2024-05-09T03:49:10.296Z,101947.91
2024-05-09T03:52:14.357Z,101943.13
2024-05-09T03:55:18.897Z,101896.06
2024-05-09T03:58:23.110Z,101941.91
2024-05-09T04:01:29.979Z,101956.38
2024-05-09T04:04:34.349Z,101954.19
2024-05-09T04:07:38.384Z,101952.75
2024-05-09T04:10:42.548Z,101959.91
2024-05-09T04:13:46.767Z,101946.94
2024-05-09T04:16:51.244Z,101923.22
2024-05-09T04:19:55.745Z,101960.50
2024-05-09T04:23:00.380Z,101956.06
2024-05-09T04:26:04.910Z,101952.13
2024-05-09T04:29:09.567Z,101912.03
2024-05-09T04:32:14.166Z,101969.97
2024-05-09T04:35:20.449Z,101934.63
2024-05-09T04:38:24.637Z,101943.78
2024-05-09T04:41:29.153Z,101956.50
2024-05-09T04:44:33.762Z,101947.41
2024-05-09T04:47:38.136Z,101952.13
2024-05-09T04:50:42.846Z,101931.53
2024-05-09T04:53:47.445Z,101949.75
2024-05-09T04:56:51.559Z,101958.66
2024-05-09T04:59:55.786Z,101909.97
2024-05-09T05:03:00.285Z,101963.91
2024-05-09T05:06:04.898Z,101972.44
2024-05-09T05:09:09.366Z,101970.75
2024-05-09T05:12:32.414Z,101970.38
2024-05-09T05:15:36.435Z,101918.59
2024-05-09T05:18:40.889Z,101920.66
2024-05-09T05:21:45.081Z,101971.97
2024-05-09T05:24:49.685Z,101955.19
2024-05-09T05:27:53.825Z,101969.94
2024-05-09T05:30:58.120Z,101946.44
2024-05-09T05:34:02.171Z,101969.59
2024-05-09T05:37:06.369Z,101928.44
2024-05-09T05:40:14.639Z,101963.00
2024-05-09T05:43:21.820Z,101956.38
2024-05-09T05:46:25.981Z,101924.88
2024-05-09T05:49:30.426Z,101970.75
2024-05-09T05:52:34.529Z,101955.66
2024-05-09T05:55:40.242Z,101972.44
2024-05-09T05:58:44.864Z,101977.34
2024-05-09T06:01:50.368Z,101971.88
2024-05-09T06:04:55.130Z,101926.88
2024-05-09T06:07:59.597Z,101972.47
2024-05-09T06:11:04.462Z,101977.28
2024-05-09T06:14:09.208Z,101983.19
2024-05-09T06:17:13.576Z,101978.44
2024-05-09T06:20:23.913Z,101972.38
2024-05-09T06:23:36.121Z,101976.63
2024-05-09T06:26:46.597Z,101972.69
2024-05-09T06:29:51.352Z,101940.19
2024-05-09T06:32:55.915Z,101973.81
2024-05-09T06:36:00.204Z,101923.16
2024-05-09T06:39:04.749Z,101924.50
2024-05-09T06:42:09.219Z,101977.47
2024-05-09T06:45:15.703Z,101971.50
2024-05-09T06:48:21.477Z,101928.25
2024-05-09T06:51:26.549Z,101971.09
2024-05-09T06:54:31.189Z,101975.63
2024-05-09T06:57:36.664Z,101967.09
2024-05-09T07:00:42.222Z,101962.81
2024-05-09T07:03:47.188Z,101926.56
2024-05-09T07:06:51.317Z,101967.38
2024-05-09T07:09:55.528Z,101933.09
2024-05-09T07:12:59.697Z,101959.97
2024-05-09T07:16:04.229Z,101974.00
2024-05-09T07:19:09.391Z,101977.94
2024-05-09T07:22:14.139Z,101983.19
2024-05-09T07:25:18.396Z,101931.97
2024-05-09T07:28:22.561Z,101979.16
2024-05-09T07:31:30.421Z,101979.31
2024-05-09T07:34:35.417Z,101962.03
2024-05-09T07:37:40.944Z,101927.84
2024-05-09T07:40:46.931Z,101978.97
2024-05-09T07:43:51.067Z,101984.81
2024-05-09T07:48:13.993Z,101948.66
2024-05-09T07:53:39.869Z,101976.19
2024-05-09T07:56:48.943Z,101983.91
2024-05-09T07:59:53.451Z,101949.78
2024-05-09T08:02:57.720Z,101967.88
2024-05-09T08:06:02.377Z,101969.13
2024-05-09T08:09:10.996Z,101965.59
2024-05-09T08:12:18.292Z,101965.66
2024-05-09T08:15:22.747Z,101964.94
2024-05-09T08:18:26.929Z,101934.53
2024-05-09T08:21:31.553Z,101961.53
2024-05-09T08:24:38.829Z,101964.72
2024-05-09T08:27:43.307Z,101949.66
2024-05-09T08:30:47.987Z,101953.53
2024-05-09T08:33:52.595Z,101960.69
2024-05-09T08:36:59.675Z,101921.16
2024-05-09T08:40:11.044Z,101949.50
2024-05-09T08:43:20.177Z,101959.38
2024-05-09T08:46:26.736Z,101947.72
2024-05-09T08:49:31.374Z,101937.91
2024-05-09T08:52:35.890Z,101944.56
2024-05-09T08:55:44.194Z,101954.50
2024-05-09T08:58:55.987Z,101952.59
2024-05-09T09:02:00.182Z,101947.81
2024-05-09T09:05:11.159Z,101946.31
2024-05-09T09:08:16.049Z,101929.50
2024-05-09T09:11:20.973Z,101937.69
2024-05-09T09:14:25.366Z,101938.53
2024-05-09T09:17:29.736Z,101915.75
2024-05-09T09:20:36.678Z,101921.03
2024-05-09T09:23:41.864Z,101885.94
2024-05-09T09:26:46.094Z,101922.38
2024-05-09T09:29:50.219Z,101916.13
2024-05-09T09:32:55.623Z,101910.91
2024-05-09T09:36:00.681Z,101910.44
2024-05-09T09:39:05.926Z,101912.31
2024-05-09T09:42:11.428Z,101910.75
2024-05-09T09:45:16.816Z,101877.66
2024-05-09T09:48:22.565Z,101903.81
2024-05-09T09:51:27.662Z,101905.47
2024-05-09T09:54:32.336Z,101905.94
2024-05-09T09:57:37.924Z,101899.41
2024-05-09T10:00:42.517Z,101900.75
2024-05-09T10:03:47.317Z,101865.91
2024-05-09T10:06:58.571Z,101886.50
2024-05-09T10:10:03.348Z,101879.16
2024-05-09T10:13:08.875Z,101882.78
2024-05-09T10:16:13.108Z,101862.88
2024-05-09T10:19:24.700Z,101875.41
2024-05-09T10:22:29.779Z,101861.06
2024-05-09T10:25:34.161Z,101862.50
2024-05-09T10:28:42.783Z,101864.00
2024-05-09T10:31:47.889Z,101857.22
2024-05-09T10:35:08.414Z,101858.63
2024-05-09T10:38:12.610Z,101858.09
2024-05-09T10:41:16.853Z,101855.91
2024-05-09T10:44:21.690Z,101859.53
2024-05-09T10:47:26.478Z,101845.22
2024-05-09T10:50:34.183Z,101834.22
2024-05-09T10:53:45.816Z,101842.88
2024-05-09T10:56:56.937Z,101839.84
2024-05-09T11:00:01.168Z,101829.13
2024-05-09T11:03:05.834Z,101833.03
2024-05-09T11:06:11.288Z,101831.75
2024-05-09T11:09:15.639Z,101820.56
2024-05-09T11:12:22.042Z,101831.38
2024-05-09T11:15:38.229Z,101783.31
2024-05-09T11:18:43.644Z,101803.41
2024-05-09T11:21:51.815Z,101818.44
2024-05-09T11:24:56.775Z,101792.53
2024-05-09T11:28:01.741Z,101799.75
2024-05-09T11:31:12.452Z,101805.19
2024-05-09T11:34:16.742Z,101801.97
2024-05-09T11:37:21.272Z,101809.72
2024-05-09T11:40:31.968Z,101814.22
2024-05-09T11:43:38.303Z,101801.72
2024-05-09T11:46:43.329Z,101802.38
2024-05-09T11:49:48.565Z,101804.53
2024-05-09T11:52:52.834Z,101791.44
2024-05-09T11:55:57.097Z,101755.16
2024-05-09T11:59:01.690Z,101764.88
2024-05-09T12:02:06.136Z,101790.59
2024-05-09T12:05:12.313Z,101785.41
2024-05-09T12:08:16.717Z,101779.25
2024-05-09T12:11:22.207Z,101776.63
2024-05-09T12:14:26.438Z,101769.44
2024-05-09T12:17:30.668Z,101761.84
2024-05-09T12:20:37.951Z,101745.06
2024-05-09T12:23:44.392Z,101752.28
2024-05-09T12:26:49.834Z,101764.81
2024-05-09T12:29:55.651Z,101755.25
2024-05-09T12:33:01.693Z,101764.16
2024-05-09T12:36:09.182Z,101760.66
2024-05-09T12:39:15.993Z,101693.22
2024-05-09T12:42:27.152Z,101746.97
2024-05-09T12:45:35.654Z,101700.31
2024-05-09T12:48:40.119Z,101724.44
2024-05-09T12:51:44.528Z,101734.38
2024-05-09T12:54:49.329Z,101738.31
2024-05-09T12:57:58.277Z,101727.78
2024-05-09T13:01:02.709Z,101735.56
2024-05-09T13:04:07.342Z,101724.84
2024-05-09T13:07:18.768Z,101727.38
2024-05-09T13:10:32.035Z,101709.41
2024-05-09T13:13:37.685Z,101719.16
2024-05-09T13:16:42.050Z,101713.13
2024-05-09T13:19:46.823Z,101666.75
2024-05-09T13:22:51.265Z,101699.03
2024-05-09T13:25:58.386Z,101653.53
2024-05-09T13:29:04.964Z,101711.41
2024-05-09T13:32:21.127Z,101704.13
2024-05-09T13:35:29.008Z,101692.50
2024-05-09T13:38:33.430Z,101699.22
2024-05-09T13:41:37.633Z,101670.50
2024-05-09T13:44:41.869Z,101656.06
2024-05-09T13:47:45.988Z,101689.47
2024-05-09T13:50:53.519Z,101695.44
2024-05-09T13:53:59.414Z,101701.75
2024-05-09T13:57:05.634Z,101693.59
2024-05-09T14:00:22.238Z,101677.00
2024-05-09T14:03:36.303Z,101684.09
2024-05-09T14:06:41.471Z,101670.84
2024-05-09T14:09:55.067Z,101674.97
2024-05-09T14:13:00.755Z,101665.00
2024-05-09T14:16:06.221Z,101673.94
2024-05-09T14:19:10.819Z,101629.53
2024-05-09T14:22:15.228Z,101656.78
2024-05-09T14:25:20.466Z,101670.72
2024-05-09T14:28:26.155Z,101646.09
2024-05-09T14:31:35.460Z,101668.97
2024-05-09T14:34:40.512Z,101637.34
2024-05-09T14:37:45.055Z,101658.13
2024-05-09T14:40:50.769Z,101649.75
2024-05-09T14:43:55.158Z,101651.72
2024-05-09T14:47:02.574Z,101653.88
2024-05-09T14:50:13.902Z,101661.00
2024-05-09T14:53:23.770Z,101615.09
2024-05-09T14:56:28.058Z,101637.00
2024-05-09T14:59:32.612Z,101611.16
2024-05-09T15:02:38.096Z,101634.06
2024-05-09T15:05:42.702Z,101578.09
2024-05-09T15:08:54.973Z,101606.94
2024-05-09T15:11:59.335Z,101626.50
2024-05-09T15:15:04.205Z,101617.22
2024-05-09T15:18:08.801Z,101615.97
2024-05-09T15:21:12.960Z,101619.41
2024-05-09T15:24:17.323Z,101608.69
2024-05-09T15:27:21.699Z,101609.09
2024-05-09T15:33:33.513Z,101606.09
2024-05-09T15:36:39.242Z,101577.34
2024-05-09T15:39:44.893Z,101606.31
2024-05-09T15:42:49.267Z,101598.22
2024-05-09T15:45:54.062Z,101600.16
2024-05-09T15:48:59.004Z,101602.25
2024-05-09T15:52:03.860Z,101548.13
2024-05-09T15:55:10.054Z,101594.28
2024-05-09T15:58:14.440Z,101586.06
2024-05-09T16:01:18.601Z,101563.41
2024-05-09T16:04:23.279Z,101596.09
2024-05-09T16:07:28.433Z,101536.09
2024-05-09T16:10:34.497Z,101586.28
2024-05-09T16:13:39.477Z,101584.78
2024-05-09T16:16:44.157Z,101572.94
2024-05-09T16:19:48.395Z,101539.44
2024-05-09T16:22:52.725Z,101571.09
2024-05-09T16:25:57.622Z,101538.34
2024-05-09T16:29:01.722Z,101576.13
2024-05-09T16:32:06.537Z,101578.56
2024-05-09T16:35:10.612Z,101574.03
2024-05-09T16:38:15.026Z,101567.31
2024-05-09T16:41:19.827Z,101548.41
2024-05-09T16:44:24.178Z,101568.38
2024-05-09T16:47:28.556Z,101564.03
2024-05-09T16:50:34.817Z,101509.19
2024-05-09T16:53:40.478Z,101566.19
2024-05-09T16:56:45.136Z,101545.28
2024-05-09T16:59:49.552Z,101530.53
2024-05-09T17:02:54.526Z,101534.94
2024-05-09T17:06:03.147Z,101563.25
2024-05-09T17:09:11.737Z,101548.31
2024-05-09T17:12:19.961Z,101521.59
2024-05-09T17:15:24.346Z,101561.84
2024-05-09T17:18:28.722Z,101571.03
2024-05-09T17:21:33.383Z,101563.03
2024-05-09T17:24:37.804Z,101541.22
2024-05-09T17:27:42.286Z,101561.97
2024-05-09T17:30:46.692Z,101560.13
2024-05-09T17:33:51.128Z,101564.50
2024-05-09T17:36:55.578Z,101547.34
2024-05-09T17:40:00.008Z,101558.69
2024-05-09T17:43:13.313Z,101540.78
2024-05-09T17:46:17.894Z,101542.00
2024-05-09T17:49:22.167Z,101509.69
2024-05-09T17:52:26.799Z,101541.69
2024-05-09T17:55:31.046Z,101560.19
2024-05-09T17:58:35.147Z,101554.22
2024-05-09T18:01:39.344Z,101555.81
2024-05-09T18:04:44.284Z,101550.28
2024-05-09T18:07:49.114Z,101547.84
2024-05-09T18:10:55.355Z,101555.59
2024-05-09T18:14:00.263Z,101547.84
2024-05-09T18:17:05.004Z,101539.38
2024-05-09T18:20:14.131Z,101509.72
2024-05-09T18:23:23.952Z,101543.97
2024-05-09T18:26:28.355Z,101554.66
2024-05-09T18:29:32.963Z,101524.50
2024-05-09T18:32:37.478Z,101549.84
2024-05-09T18:35:45.120Z,101560.63
2024-05-09T18:38:49.567Z,101551.22
2024-05-09T18:41:53.861Z,101562.88
2024-05-09T18:44:58.390Z,101569.69
2024-05-09T18:48:04.791Z,101562.38
2024-05-09T18:51:09.072Z,101550.72
2024-05-09T18:54:13.430Z,101568.16
2024-05-09T18:57:20.729Z,101535.69
2024-05-09T19:00:33.818Z,101574.38
2024-05-09T19:03:41.937Z,101576.72
2024-05-09T19:06:46.279Z,101588.44
2024-05-09T19:09:50.621Z,101595.00
2024-05-09T19:12:55.315Z,101550.66
2024-05-09T19:15:59.899Z,101560.50
2024-05-09T19:19:05.137Z,101602.00
2024-05-09T19:22:09.478Z,101580.06
2024-05-09T19:25:13.779Z,101606.75
2024-05-09T19:28:18.753Z,101589.22
2024-05-09T19:31:23.176Z,101603.19
2024-05-09T19:34:29.613Z,101552.59
2024-05-09T19:37:33.985Z,101611.66
2024-05-09T19:40:38.043Z,101597.50
2024-05-09T19:43:42.177Z,101611.50
2024-05-09T19:46:46.815Z,101618.25
2024-05-09T19:49:51.602Z,101607.78
2024-05-09T19:52:55.838Z,101585.78
2024-05-09T19:55:59.920Z,101610.44
2024-05-09T19:59:04.258Z,101623.63
2024-05-09T20:02:09.035Z,101576.28
2024-05-09T20:05:13.968Z,101620.22
2024-05-09T20:08:18.375Z,101624.59
2024-05-09T20:11:23.717Z,101620.16
2024-05-09T20:14:28.035Z,101631.63
2024-05-09T20:17:32.536Z,101588.38
2024-05-09T20:20:40.910Z,101607.44
2024-05-09T20:23:47.229Z,101618.41
2024-05-09T20:26:51.560Z,101630.31
2024-05-09T20:29:55.738Z,101616.69
2024-05-09T20:33:00.195Z,101609.06
2024-05-09T20:36:05.781Z,101642.69
2024-05-09T20:39:10.224Z,101631.53
2024-05-09T20:42:14.691Z,101619.34
2024-05-09T20:45:19.194Z,101620.25
2024-05-09T20:48:24.690Z,101598.03
2024-05-09T20:51:30.455Z,101629.03
2024-05-09T20:54:34.565Z,101605.56
2024-05-09T20:57:39.308Z,101625.16
2024-05-09T21:00:45.737Z,101576.31
2024-05-09T21:03:51.086Z,101625.97
2024-05-09T21:06:55.602Z,101615.78
2024-05-09T21:10:00.292Z,101637.38
2024-05-09T21:13:04.771Z,101586.44
2024-05-09T21:16:09.533Z,101625.22
2024-05-09T21:19:13.894Z,101635.22
2024-05-09T21:22:18.472Z,101638.91
2024-05-09T21:25:22.820Z,101641.75
2024-05-09T21:28:31.055Z,101609.22
2024-05-09T21:31:37.849Z,101637.78
2024-05-09T21:34:42.080Z,101644.41
2024-05-09T21:37:47.097Z,101615.78
2024-05-09T21:40:51.375Z,101639.84
2024-05-09T21:43:55.933Z,101632.63
2024-05-09T21:47:00.397Z,101645.69
2024-05-09T21:50:06.040Z,101647.59
2024-05-09T21:53:12.723Z,101634.47
2024-05-09T21:56:17.573Z,101614.03
2024-05-09T21:59:21.879Z,101645.63
2024-05-09T22:02:26.625Z,101644.16
2024-05-09T22:05:31.030Z,101635.97
2024-05-09T22:08:35.075Z,101648.41
2024-05-09T22:11:39.442Z,101645.84
2024-05-09T22:14:43.626Z,101617.94
2024-05-09T22:17:48.403Z,101602.34
2024-05-09T22:20:52.714Z,101628.38
2024-05-09T22:23:57.200Z,101610.78
2024-05-09T22:27:01.620Z,101642.91
2024-05-09T22:30:09.200Z,101628.78
2024-05-09T22:33:16.075Z,101629.53
2024-05-09T22:36:20.507Z,101609.41
2024-05-09T22:39:24.872Z,101651.50
2024-05-09T22:42:29.330Z,101651.53
2024-05-09T22:45:33.417Z,101655.44
2024-05-09T22:48:37.835Z,101663.22
2024-05-09T22:51:42.700Z,101660.28
2024-05-09T22:54:47.288Z,101602.38
2024-05-09T22:57:51.711Z,101621.56
2024-05-09T23:00:56.050Z,101658.72
2024-05-09T23:04:00.481Z,101659.69
2024-05-09T23:07:05.130Z,101654.00
2024-05-09T23:10:13.452Z,101620.41
2024-05-09T23:13:25.082Z,101612.22
2024-05-09T23:16:29.576Z,101643.06
2024-05-09T23:19:34.763Z,101632.31
2024-05-09T23:22:39.481Z,101538.56
2024-05-09T23:25:44.157Z,101587.28
2024-05-09T23:28:48.610Z,101626.38
2024-05-09T23:31:53.431Z,101632.59
2024-05-09T23:34:57.382Z,101629.75
2024-05-09T23:38:01.920Z,101630.47
2024-05-09T23:41:06.794Z,101634.28
2024-05-09T23:44:10.910Z,101640.06
2024-05-09T23:47:14.970Z,101633.84
2024-05-09T23:50:26.342Z,101597.56
2024-05-09T23:53:37.099Z,101629.50
2024-05-09T23:56:41.468Z,101630.88
2024-05-09T23:59:45.566Z,101616.34
